Observation data for Hart on 11/09/2019      Previous  Date       Current Mesonet Observations  Soil Data  Daily Summary Page  Observations in Plain Language
KHRS 090600Z 25006KT 00/00 A3028 RMK A01 T00030002  RH  100%=      5-min Rain = 0
KHRS 090605Z 25006KT M00/M00 A3028 RMK A01 T10011002  RH  100%=      5-min Rain = 0
KHRS 090610Z 26006KT M00/M01 A3028 RMK A01 T10041005  RH  100%=      5-min Rain = 0
KHRS 090615Z 26007KT M00/M01 A3028 RMK A01 T10031005  RH  100%=      5-min Rain = 0
KHRS 090620Z 26007KT M00/M00 A3028 RMK A01 T10011003  RH  100%=      5-min Rain = 0
KHRS 090625Z 27006KT M00/M00 A3028 RMK A01 T10021003  RH  100%=      5-min Rain = 0
KHRS 090630Z 28006KT M00/M01 A3028 RMK A01 T10031005  RH  100%=      5-min Rain = 0
KHRS 090635Z 28006KT M00/M00 A3027 RMK A01 T10031004  RH  100%=      5-min Rain = 0
KHRS 090640Z 29007KT M00/M00 A3027 RMK A01 T10021004  RH  100%=      5-min Rain = 0
KHRS 090645Z 29007KT M00/M00 A3027 RMK A01 T10011003  RH  100%=      5-min Rain = 0
KHRS 090650Z 29007KT 00/00 A3027 RMK A01 T000000-1  RH  100%=      5-min Rain = 0
KHRS 090655Z 28007KT 00/00 A3027 RMK A01 T00020000  RH  100%=      5-min Rain = 0
KHRS 090700Z 28007KT 00/00 A3027 RMK A01 T00020001  RH  100%=      5-min Rain = 0
KHRS 090705Z 28008KT 00/00 A3027 RMK A01 T00040002  RH  100%=      5-min Rain = 0
KHRS 090710Z 28009KT 01/00 A3027 RMK A01 T00050004  RH  100%=      5-min Rain = 0
KHRS 090715Z 28009KT 01/01 A3027 RMK A01 T00060005  RH  100%=      5-min Rain = 0
KHRS 090720Z 28009KT 01/00 A3027 RMK A01 T00060004  RH  100%=      5-min Rain = 0
KHRS 090725Z 27009KT 01/01 A3026 RMK A01 T00060005  RH  100%=      5-min Rain = 0
KHRS 090730Z 27009KT 01/01 A3026 RMK A01 T00080007  RH  100%=      5-min Rain = 0
KHRS 090735Z 27008KT 01/01 A3026 RMK A01 T00100008  RH  100%=      5-min Rain = 0
KHRS 090740Z 28008KT 01/01 A3026 RMK A01 T00110009  RH  100%=      5-min Rain = 0
KHRS 090745Z 27008KT 01/01 A3026 RMK A01 T00120010  RH  100%=      5-min Rain = 0
KHRS 090750Z 27008KT 01/01 A3026 RMK A01 T00140012  RH  100%=      5-min Rain = 0
KHRS 090755Z 27009KT 02/02 A3026 RMK A01 T00160015  RH  100%=      5-min Rain = 0
KHRS 090800Z 27009KT 02/02 A3026 RMK A01 T00180016  RH  100%=      5-min Rain = 0
KHRS 090805Z 27008KT 02/02 A3026 RMK A01 T00200018  RH  100%=      5-min Rain = 0
KHRS 090810Z 27009KT 02/02 A3026 RMK A01 T00220020  RH  100%=      5-min Rain = 0
KHRS 090815Z 27009KT 02/02 A3025 RMK A01 T00230021  RH  100%=      5-min Rain = 0
KHRS 090820Z 28008KT 02/02 A3025 RMK A01 T00220021  RH  100%=      5-min Rain = 0
KHRS 090825Z 28007KT 02/02 A3025 RMK A01 T00210020  RH  100%=      5-min Rain = 0
KHRS 090830Z 27007KT 02/02 A3025 RMK A01 T00210019  RH  100%=      5-min Rain = 0
KHRS 090835Z 27007KT 02/02 A3025 RMK A01 T00210020  RH  100%=      5-min Rain = 0
KHRS 090840Z 27007KT 02/02 A3025 RMK A01 T00210019  RH  100%=      5-min Rain = 0
KHRS 090845Z 28007KT 02/02 A3025 RMK A01 T00210019  RH  100%=      5-min Rain = 0
KHRS 090850Z 28007KT 02/02 A3025 RMK A01 T00180016  RH  100%=      5-min Rain = 0
KHRS 090855Z 28006KT 01/01 A3025 RMK A01 T00140013  RH  100%=      5-min Rain = 0
KHRS 090900Z 28007KT 01/01 A3025 RMK A01 T00130011  RH  100%=      5-min Rain = 0
KHRS 090905Z 28007KT 01/01 A3025 RMK A01 T00110009  RH  100%=      5-min Rain = 0
KHRS 090910Z 29007KT 01/01 A3024 RMK A01 T00090007  RH  100%=      5-min Rain = 0
KHRS 090915Z 30007KT 01/01 A3024 RMK A01 T00070006  RH  100%=      5-min Rain = 0
KHRS 090920Z 30007KT 01/01 A3024 RMK A01 T00060005  RH  100%=      5-min Rain = 0
KHRS 090925Z 30006KT 01/00 A3024 RMK A01 T00050003  RH  100%=      5-min Rain = 0
KHRS 090930Z 30006KT 00/00 A3024 RMK A01 T00040002  RH  100%=      5-min Rain = 0
KHRS 090935Z 30007KT 00/00 A3024 RMK A01 T00040003  RH  100%=      5-min Rain = 0
KHRS 090940Z 31008KT 01/01 A3024 RMK A01 T00060005  RH  100%=      5-min Rain = 0
KHRS 090945Z 31008KT 01/01 A3024 RMK A01 T00070006  RH  100%=      5-min Rain = 0
KHRS 090950Z 30008KT 01/01 A3024 RMK A01 T00110009  RH  100%=      5-min Rain = 0
KHRS 090955Z 29007KT 01/01 A3024 RMK A01 T00140012  RH  100%=      5-min Rain = 0
KHRS 091000Z 29008KT 01/01 A3023 RMK A01 T00140012  RH  100%=      5-min Rain = 0
KHRS 091005Z 29007KT 01/01 A3023 RMK A01 T00140012  RH  100%=      5-min Rain = 0
KHRS 091010Z 29007KT 01/01 A3023 RMK A01 T00140013  RH  100%=      5-min Rain = 0
KHRS 091015Z 29007KT 01/01 A3023 RMK A01 T00130012  RH  100%=      5-min Rain = 0
KHRS 091020Z 28008KT 01/01 A3023 RMK A01 T00120011  RH  100%=      5-min Rain = 0
KHRS 091025Z 28007KT 01/01 A3023 RMK A01 T00100008  RH  100%=      5-min Rain = 0
KHRS 091030Z 29007KT 01/00 A3023 RMK A01 T00060004  RH  100%=      5-min Rain = 0
KHRS 091035Z 29007KT 00/00 A3023 RMK A01 T00040002  RH  100%=      5-min Rain = 0
KHRS 091040Z 29007KT 00/00 A3023 RMK A01 T00020000  RH  100%=      5-min Rain = 0
KHRS 091045Z 28008KT 00/00 A3023 RMK A01 T00020001  RH  100%=      5-min Rain = 0
KHRS 091050Z 25009KT 01/00 A3023 RMK A01 T00050004  RH  100%=      5-min Rain = 0
KHRS 091055Z 25008KT 01/00 A3023 RMK A01 T00050004  RH  100%=      5-min Rain = 0
KHRS 091100Z 25008KT 00/M00 A3023 RMK A01 T00011001  RH  100%=      5-min Rain = 0
KHRS 091105Z 25009KT 00/M00 A3023 RMK A01 T00011001  RH  100%=      5-min Rain = 0
KHRS 091110Z 25008KT 00/00 A3023 RMK A01 T000100-0  RH  100%=      5-min Rain = 0
KHRS 091115Z 26008KT 00/00 A3023 RMK A01 T000000-1  RH  100%=      5-min Rain = 0
KHRS 091120Z 26008KT 00/00 A3023 RMK A01 T00020000  RH  100%=      5-min Rain = 0
KHRS 091125Z 26007KT 00/00 A3023 RMK A01 T00020000  RH  100%=      5-min Rain = 0
KHRS 091130Z 27007KT 00/M00 A3023 RMK A01 T00011001  RH  100%=      5-min Rain = 0
KHRS 091135Z 26008KT 00/00 A3023 RMK A01 T000000-1  RH  100%=      5-min Rain = 0
KHRS 091140Z 26008KT M00/M00 A3023 RMK A01 T10011002  RH  100%=      5-min Rain = 0
KHRS 091145Z 26008KT M00/M00 A3023 RMK A01 T10011003  RH  100%=      5-min Rain = 0
KHRS 091150Z 26008KT M00/M00 A3023 RMK A01 T10021003  RH  100%=      5-min Rain = 0
KHRS 091155Z 27008KT M00/M00 A3023 RMK A01 T10011002  RH  100%=      5-min Rain = 0
KHRS 091200Z 27008KT 00/00 A3023 RMK A01 T000000-1  RH  100%=      5-min Rain = 0
KHRS 091205Z 27008KT 00/M00 A3023 RMK A01 T00011001  RH  100%=      5-min Rain = 0
KHRS 091210Z 27007KT 00/M00 A3023 RMK A01 T00011001  RH  100%=      5-min Rain = 0
KHRS 091215Z 27007KT 00/M00 A3022 RMK A01 T00011001  RH  100%=      5-min Rain = 0
KHRS 091220Z 26008KT 00/00 A3022 RMK A01 T000100-0  RH  100%=      5-min Rain = 0
KHRS 091225Z 26009KT 00/M00 A3022 RMK A01 T00011001  RH  100%=      5-min Rain = 0
KHRS 091230Z 27008KT 00/00 A3023 RMK A01 T00-000-2  RH  100%=      5-min Rain = 0
KHRS 091235Z 28008KT 00/00 A3023 RMK A01 T00-000-2  RH  100%=      5-min Rain = 0
KHRS 091240Z 29007KT M00/M00 A3023 RMK A01 T10011002  RH  100%=      5-min Rain = 0
KHRS 091245Z 27008KT M00/M00 A3023 RMK A01 T10021003  RH  100%=      5-min Rain = 0
KHRS 091250Z 27008KT M00/M00 A3023 RMK A01 T10021003  RH  100%=      5-min Rain = 0
KHRS 091255Z 27008KT M00/M00 A3023 RMK A01 T10021004  RH  100%=      5-min Rain = 0
KHRS 091300Z 27007KT M00/M01 A3024 RMK A01 T10031005  RH  100%=      5-min Rain = 0
KHRS 091305Z 27007KT M00/M01 A3024 RMK A01 T10041005  RH  100%=      5-min Rain = 0
KHRS 091310Z 27007KT M00/M01 A3024 RMK A01 T10041006  RH  100%=      5-min Rain = 0
KHRS 091315Z 26007KT M01/M01 A3024 RMK A01 T10051006  RH  100%=      5-min Rain = 0
KHRS 091320Z 26007KT M01/M01 A3024 RMK A01 T10051006  RH  100%=      5-min Rain = 0
KHRS 091325Z 26008KT M01/M01 A3024 RMK A01 T10051006  RH  100%=      5-min Rain = 0
KHRS 091330Z 27007KT M00/M01 A3024 RMK A01 T10041005  RH  100%=      5-min Rain = 0
KHRS 091335Z 27007KT M00/M01 A3024 RMK A01 T10031005  RH  100%=      5-min Rain = 0
KHRS 091340Z 26008KT M00/M00 A3024 RMK A01 T10031004  RH  100%=      5-min Rain = 0
KHRS 091345Z 26008KT M00/M00 A3024 RMK A01 T10011003  RH  100%=      5-min Rain = 0
KHRS 091350Z 26008KT 00/M00 A3024 RMK A01 T00011001  RH  100%=      5-min Rain = 0
KHRS 091355Z 26008KT 00/00 A3025 RMK A01 T00020001  RH  100%=      5-min Rain = 0
KHRS 091400Z 25009KT 00/00 A3025 RMK A01 T00040002  RH  100%=      5-min Rain = 0
KHRS 091405Z 25008KT 01/00 A3025 RMK A01 T00050004  RH  100%=      5-min Rain = 0
KHRS 091410Z 26008KT 01/01 A3025 RMK A01 T00070005  RH  100%=      5-min Rain = 0
KHRS 091415Z 26009KT 01/01 A3025 RMK A01 T00090007  RH  100%=      5-min Rain = 0
KHRS 091420Z 26008KT 01/01 A3025 RMK A01 T00110009  RH  100%=      5-min Rain = 0
KHRS 091425Z 26009KT 01/01 A3025 RMK A01 T00140012  RH  100%=      5-min Rain = 0
KHRS 091430Z 26009KT 02/02 A3025 RMK A01 T00170015  RH  100%=      5-min Rain = 0
KHRS 091435Z 26009KT 02/02 A3025 RMK A01 T00200018  RH  100%=      5-min Rain = 0
KHRS 091440Z 27010KT 02/02 A3025 RMK A01 T00230021  RH  100%=      5-min Rain = 0
KHRS 091445Z 27008KT 03/03 A3025 RMK A01 T00270025  RH  100%=      5-min Rain = 0
KHRS 091450Z 28007KT 03/03 A3025 RMK A01 T00330031  RH  100%=      5-min Rain = 0
KHRS 091455Z 28008KT 04/04 A3025 RMK A01 T00380036  RH  100%=      5-min Rain = 0
KHRS 091500Z 28007KT 04/04 A3025 RMK A01 T00420040  RH  100%=      5-min Rain = 0
KHRS 091505Z 28006KT 05/04 A3025 RMK A01 T00470044  RH  099%=      5-min Rain = 0
KHRS 091510Z 27006KT 05/05 A3025 RMK A01 T00500046  RH  099%=      5-min Rain = 0
KHRS 091515Z 28005KT 06/05 A3025 RMK A01 T00550051  RH  098%=      5-min Rain = 0
KHRS 091520Z 28005KT 06/05 A3025 RMK A01 T00590054  RH  098%=      5-min Rain = 0
KHRS 091525Z 27005KT 06/06 A3025 RMK A01 T00620056  RH  097%=      5-min Rain = 0
KHRS 091530Z 25005KT 07/06 A3025 RMK A01 T00650058  RH  097%=      5-min Rain = 0
KHRS 091535Z 25005KT 07/06 A3025 RMK A01 T00700062  RH  096%=      5-min Rain = 0
KHRS 091540Z 25005KT 07/06 A3025 RMK A01 T00740064  RH  095%=      5-min Rain = 0
KHRS 091545Z 25005KT 08/07 A3025 RMK A01 T00780067  RH  094%=      5-min Rain = 0
KHRS 091550Z 26005KT 08/07 A3025 RMK A01 T00810068  RH  093%=      5-min Rain = 0
KHRS 091555Z 25004KT 08/07 A3025 RMK A01 T00830067  RH  091%=      5-min Rain = 0
KHRS 091600Z 26005KT 09/07 A3026 RMK A01 T00850068  RH  090%=      5-min Rain = 0
KHRS 091605Z 27004KT 09/07 A3026 RMK A01 T00880070  RH  090%=      5-min Rain = 0
KHRS 091610Z 26004KT 09/07 A3026 RMK A01 T00920071  RH  088%=      5-min Rain = 0
KHRS 091615Z 26005KT 10/07 A3026 RMK A01 T00950072  RH  087%=      5-min Rain = 0
KHRS 091620Z 25006KT 10/08 A3026 RMK A01 T01000075  RH  086%=      5-min Rain = 0
KHRS 091625Z 26005KT 10/08 A3025 RMK A01 T01040077  RH  084%=      5-min Rain = 0
KHRS 091630Z 25005KT 11/08 A3025 RMK A01 T01070077  RH  083%=      5-min Rain = 0
KHRS 091635Z 25005KT 11/08 A3025 RMK A01 T01090077  RH  082%=      5-min Rain = 0
KHRS 091640Z 25006KT 11/08 A3025 RMK A01 T01130078  RH  081%=      5-min Rain = 0
KHRS 091645Z 25006KT 12/08 A3025 RMK A01 T01150076  RH  078%=      5-min Rain = 0
KHRS 091650Z 25005KT 12/08 A3025 RMK A01 T01180078  RH  078%=      5-min Rain = 0
KHRS 091655Z 25005KT 12/08 A3025 RMK A01 T01210080  RH  077%=      5-min Rain = 0
KHRS 091700Z 25005KT 13/08 A3025 RMK A01 T01250079  RH  075%=      5-min Rain = 0
KHRS 091705Z 24004KT 13/08 A3025 RMK A01 T01290084  RH  075%=      5-min Rain = 0
KHRS 091710Z 24005KT 13/08 A3024 RMK A01 T01320083  RH  073%=      5-min Rain = 0
KHRS 091715Z 24005KT 13/08 A3024 RMK A01 T01340081  RH  071%=      5-min Rain = 0
KHRS 091720Z 25004KT 14/08 A3024 RMK A01 T01380077  RH  067%=      5-min Rain = 0
KHRS 091725Z 24004KT 14/07 A3024 RMK A01 T01390073  RH  065%=      5-min Rain = 0
KHRS 091730Z 23005KT 14/08 A3024 RMK A01 T01430075  RH  065%=      5-min Rain = 0
KHRS 091735Z 23005KT 15/07 A3024 RMK A01 T01460073  RH  062%=      5-min Rain = 0
KHRS 091740Z 23005KT 15/07 A3024 RMK A01 T01470070  RH  061%=      5-min Rain = 0
KHRS 091745Z 23005KT 15/08 A3023 RMK A01 T01500077  RH  063%=      5-min Rain = 0
KHRS 091750Z 23006KT 15/08 A3023 RMK A01 T01530078  RH  062%=      5-min Rain = 0
KHRS 091755Z 23006KT 16/08 A3023 RMK A01 T01550079  RH  061%=      5-min Rain = 0
KHRS 091800Z 23006KT 16/08 A3022 RMK A01 T01580076  RH  059%=      5-min Rain = 0
KHRS 091805Z 24005KT 16/07 A3022 RMK A01 T01600073  RH  057%=      5-min Rain = 0
KHRS 091810Z 22006KT 16/07 A3022 RMK A01 T01630070  RH  055%=      5-min Rain = 0
KHRS 091815Z 23006KT 16/07 A3022 RMK A01 T01640070  RH  055%=      5-min Rain = 0
KHRS 091820Z 23006KT 17/07 A3021 RMK A01 T01670069  RH  053%=      5-min Rain = 0
KHRS 091825Z 25006KT 17/07 A3021 RMK A01 T01700070  RH  053%=      5-min Rain = 0
KHRS 091830Z 25007KT 17/08 A3021 RMK A01 T01730076  RH  054%=      5-min Rain = 0
KHRS 091835Z 24007KT 18/07 A302 RMK A01 T01760073  RH  052%=      5-min Rain = 0
KHRS 091840Z 24007KT 18/07 A302 RMK A01 T01800067  RH  048%=      5-min Rain = 0
KHRS 091845Z 24007KT 18/07 A302 RMK A01 T01810068  RH  048%=      5-min Rain = 0
KHRS 091850Z 23007KT 18/07 A3019 RMK A01 T01840065  RH  047%=      5-min Rain = 0
KHRS 091855Z 24007KT 19/07 A3019 RMK A01 T01870066  RH  046%=      5-min Rain = 0
KHRS 091900Z 24008KT 19/06 A3019 RMK A01 T01880063  RH  045%=      5-min Rain = 0
KHRS 091905Z 24009KT 19/06 A3019 RMK A01 T01890058  RH  043%=      5-min Rain = 0
KHRS 091910Z 24008KT 19/06 A3018 RMK A01 T01920064  RH  044%=      5-min Rain = 0
KHRS 091915Z 22007KT 20/08 A3018 RMK A01 T01950075  RH  047%=      5-min Rain = 0
KHRS 091920Z 23008KT 20/07 A3018 RMK A01 T01950067  RH  044%=      5-min Rain = 0
KHRS 091925Z 24009KT 19/05 A3018 RMK A01 T01930052  RH  040%=      5-min Rain = 0
KHRS 091930Z 24009KT 19/05 A3018 RMK A01 T01940053  RH  040%=      5-min Rain = 0
KHRS 091935Z 25009KT 20/05 A3017 RMK A01 T01960050  RH  039%=      5-min Rain = 0
KHRS 091940Z 25011KT 20/05 A3017 RMK A01 T01980054  RH  039%=      5-min Rain = 0
KHRS 091945Z 24011KT 20/05 A3017 RMK A01 T01990045  RH  037%=      5-min Rain = 0
KHRS 091950Z 23011KT 20/04 A3016 RMK A01 T02020035  RH  034%=      5-min Rain = 0
KHRS 091955Z 25011KT 20/03 A3016 RMK A01 T02020033  RH  033%=      5-min Rain = 0
KHRS 092000Z 25011G16KT 21/03 A3015 RMK A01 T02050034  RH  033%=      5-min Rain = 0
KHRS 092005Z 26012KT 21/03 A3015 RMK A01 T02060028  RH  031%=      5-min Rain = 0
KHRS 092010Z 25011KT 21/03 A3015 RMK A01 T02080030  RH  031%=      5-min Rain = 0
KHRS 092015Z 25011KT 21/02 A3015 RMK A01 T02080022  RH  030%=      5-min Rain = 0
KHRS 092020Z 25012G18KT 21/02 A3015 RMK A01 T02090015  RH  028%=      5-min Rain = 0
KHRS 092025Z 25012G17KT 21/02 A3015 RMK A01 T02100020  RH  029%=      5-min Rain = 0
KHRS 092030Z 25011G16KT 21/02 A3014 RMK A01 T02120021  RH  029%=      5-min Rain = 0
KHRS 092035Z 25012KT 21/01 A3014 RMK A01 T02110008  RH  026%=      5-min Rain = 0
KHRS 092040Z 25011KT 21/01 A3014 RMK A01 T02100009  RH  026%=      5-min Rain = 0
KHRS 092045Z 24011KT 21/01 A3014 RMK A01 T02110009  RH  026%=      5-min Rain = 0
KHRS 092050Z 24010KT 21/01 A3014 RMK A01 T02120012  RH  027%=      5-min Rain = 0
KHRS 092055Z 23011G16KT 21/01 A3014 RMK A01 T02140009  RH  026%=      5-min Rain = 0
KHRS 092100Z 24011KT 21/01 A3014 RMK A01 T02130006  RH  026%=      5-min Rain = 0
KHRS 092105Z 24010G16KT 21/02 A3013 RMK A01 T02130015  RH  027%=      5-min Rain = 0
KHRS 092110Z 23009KT 22/02 A3013 RMK A01 T02160015  RH  027%=      5-min Rain = 0
KHRS 092115Z 22010KT 22/01 A3013 RMK A01 T02160005  RH  025%=      5-min Rain = 0
KHRS 092120Z 23010KT 22/01 A3013 RMK A01 T02160007  RH  025%=      5-min Rain = 0
KHRS 092125Z 23010KT 22/M00 A3013 RMK A01 T02151002  RH  024%=      5-min Rain = 0
KHRS 092130Z 23009KT 22/M00 A3013 RMK A01 T02161001  RH  024%=      5-min Rain = 0
KHRS 092135Z 23011KT 22/00 A3013 RMK A01 T02160004  RH  025%=      5-min Rain = 0
KHRS 092140Z 24012KT 21/01 A3012 RMK A01 T02140008  RH  026%=      5-min Rain = 0
KHRS 092145Z 23010G15KT 21/00 A3012 RMK A01 T02130002  RH  025%=      5-min Rain = 0
KHRS 092150Z 23010KT 21/00 A3012 RMK A01 T02130003  RH  025%=      5-min Rain = 0
KHRS 092155Z 24011KT 21/01 A3012 RMK A01 T02130005  RH  025%=      5-min Rain = 0
KHRS 092200Z 24010KT 21/00 A3012 RMK A01 T02120003  RH  025%=      5-min Rain = 0
KHRS 092205Z 24010G15KT 21/M00 A3012 RMK A01 T02121003  RH  024%=      5-min Rain = 0
KHRS 092210Z 24010KT 21/M00 A3012 RMK A01 T02111004  RH  024%=      5-min Rain = 0
KHRS 092215Z 24009KT 21/M00 A3012 RMK A01 T02111001  RH  025%=      5-min Rain = 0
KHRS 092220Z 24011KT 21/M00 A3012 RMK A01 T02101003  RH  024%=      5-min Rain = 0
KHRS 092225Z 24008KT 21/00 A3012 RMK A01 T02090001  RH  025%=      5-min Rain = 0
KHRS 092230Z 24008KT 21/00 A3011 RMK A01 T020900-0  RH  025%=      5-min Rain = 0
KHRS 092235Z 24008KT 21/00 A3011 RMK A01 T02080004  RH  026%=      5-min Rain = 0
KHRS 092240Z 24007KT 21/01 A3011 RMK A01 T02080006  RH  026%=      5-min Rain = 0
KHRS 092245Z 24006KT 21/01 A3011 RMK A01 T02070009  RH  027%=      5-min Rain = 0
KHRS 092250Z 24006KT 20/01 A3011 RMK A01 T02040013  RH  028%=      5-min Rain = 0
KHRS 092255Z 24006KT 20/01 A3011 RMK A01 T02000014  RH  029%=      5-min Rain = 0
KHRS 092300Z 24005KT 20/02 A3011 RMK A01 T01980016  RH  030%=      5-min Rain = 0
KHRS 092305Z 24004KT 20/02 A3011 RMK A01 T01960020  RH  031%=      5-min Rain = 0
KHRS 092310Z 25004KT 20/02 A3011 RMK A01 T01950023  RH  032%=      5-min Rain = 0
KHRS 092315Z 24003KT 19/03 A3011 RMK A01 T01920025  RH  033%=      5-min Rain = 0
KHRS 092320Z 24004KT 18/03 A3011 RMK A01 T01840029  RH  036%=      5-min Rain = 0
KHRS 092325Z 24004KT 18/03 A3011 RMK A01 T01770032  RH  038%=      5-min Rain = 0
KHRS 092330Z 23004KT 17/03 A3011 RMK A01 T01730033  RH  039%=      5-min Rain = 0
KHRS 092335Z 23004KT 17/03 A3011 RMK A01 T01710030  RH  039%=      5-min Rain = 0
KHRS 092340Z 22004KT 17/03 A3011 RMK A01 T01690027  RH  039%=      5-min Rain = 0
KHRS 092345Z 21005KT 16/03 A3011 RMK A01 T01620028  RH  041%=      5-min Rain = 0
KHRS 092350Z 21005KT 15/03 A3011 RMK A01 T01540034  RH  045%=      5-min Rain = 0
KHRS 092355Z 21003KT 15/04 A3011 RMK A01 T01540037  RH  046%=      5-min Rain = 0
KHRS 100000Z 21005KT 15/04 A3011 RMK A01 T01510037  RH  047%=      5-min Rain = 0
KHRS 100005Z 21006KT 15/04 A3011 RMK A01 T01460038  RH  049%=      5-min Rain = 0
KHRS 100010Z 21006KT 14/04 A3011 RMK A01 T01430039  RH  050%=      5-min Rain = 0
KHRS 100015Z 20005KT 14/04 A3011 RMK A01 T01440038  RH  050%=      5-min Rain = 0
KHRS 100020Z 20006KT 14/04 A3011 RMK A01 T01420040  RH  051%=      5-min Rain = 0
KHRS 100025Z 21008KT 14/04 A3011 RMK A01 T01370038  RH  052%=      5-min Rain = 0
KHRS 100030Z 22008KT 14/03 A3011 RMK A01 T01400030  RH  048%=      5-min Rain = 0
KHRS 100035Z 21007KT 14/03 A3011 RMK A01 T01370029  RH  049%=      5-min Rain = 0
KHRS 100040Z 21008KT 13/03 A3011 RMK A01 T01250029  RH  053%=      5-min Rain = 0
KHRS 100045Z 21008KT 12/03 A3011 RMK A01 T01210025  RH  052%=      5-min Rain = 0
KHRS 100050Z 21008KT 12/02 A3011 RMK A01 T01220024  RH  052%=      5-min Rain = 0
KHRS 100055Z 21008KT 12/02 A3011 RMK A01 T01230022  RH  051%=      5-min Rain = 0
KHRS 100100Z 20006KT 12/02 A3011 RMK A01 T01190024  RH  053%=      5-min Rain = 0
KHRS 100105Z 20007KT 11/02 A3011 RMK A01 T01080024  RH  057%=      5-min Rain = 0
KHRS 100110Z 20006KT 11/02 A3011 RMK A01 T01070024  RH  057%=      5-min Rain = 0
KHRS 100115Z 19005KT 11/03 A3011 RMK A01 T01140025  RH  055%=      5-min Rain = 0
KHRS 100120Z 19006KT 11/03 A3011 RMK A01 T01130026  RH  056%=      5-min Rain = 0
KHRS 100125Z 20006KT 11/03 A3011 RMK A01 T01060025  RH  058%=      5-min Rain = 0
KHRS 100130Z 21006KT 10/03 A3011 RMK A01 T00990025  RH  061%=      5-min Rain = 0
KHRS 100135Z 21006KT 10/03 A3011 RMK A01 T00960027  RH  063%=      5-min Rain = 0
KHRS 100140Z 23006KT 09/03 A3011 RMK A01 T00940027  RH  064%=      5-min Rain = 0
KHRS 100145Z 24008KT 09/03 A3011 RMK A01 T00930026  RH  064%=      5-min Rain = 0
KHRS 100150Z 22009KT 09/02 A3011 RMK A01 T00940023  RH  062%=      5-min Rain = 0
KHRS 100155Z 22009KT 09/02 A3011 RMK A01 T00930023  RH  062%=      5-min Rain = 0
KHRS 100200Z 21009KT 09/02 A3011 RMK A01 T00910021  RH  062%=      5-min Rain = 0
KHRS 100205Z 21008KT 09/02 A3011 RMK A01 T00910022  RH  063%=      5-min Rain = 0
KHRS 100210Z 21009KT 09/02 A3011 RMK A01 T00880024  RH  065%=      5-min Rain = 0
KHRS 100215Z 21009KT 09/02 A3011 RMK A01 T00880024  RH  065%=      5-min Rain = 0
KHRS 100220Z 21009KT 09/02 A3011 RMK A01 T00910024  RH  064%=      5-min Rain = 0
KHRS 100225Z 21008KT 10/02 A3011 RMK A01 T00950024  RH  062%=      5-min Rain = 0
KHRS 100230Z 21008KT 09/02 A3011 RMK A01 T00920024  RH  064%=      5-min Rain = 0
KHRS 100235Z 21007KT 08/02 A3011 RMK A01 T00840023  RH  066%=      5-min Rain = 0
KHRS 100240Z 22007KT 08/02 A3011 RMK A01 T00790022  RH  068%=      5-min Rain = 0
KHRS 100245Z 20007KT 07/02 A3011 RMK A01 T00740021  RH  070%=      5-min Rain = 0
KHRS 100250Z 22008KT 07/02 A3011 RMK A01 T00740022  RH  071%=      5-min Rain = 0
KHRS 100255Z 23007KT 08/02 A3011 RMK A01 T00820022  RH  067%=      5-min Rain = 0
KHRS 100300Z 23006KT 08/02 A3011 RMK A01 T00780020  RH  067%=      5-min Rain = 0
KHRS 100305Z 23006KT 07/02 A3011 RMK A01 T00740019  RH  069%=      5-min Rain = 0
KHRS 100310Z 23007KT 08/02 A3011 RMK A01 T00750018  RH  068%=      5-min Rain = 0
KHRS 100315Z 23007KT 07/02 A3011 RMK A01 T00730017  RH  068%=      5-min Rain = 0
KHRS 100320Z 23006KT 07/02 A3011 RMK A01 T00720017  RH  069%=      5-min Rain = 0
KHRS 100325Z 23007KT 07/02 A3011 RMK A01 T00710017  RH  069%=      5-min Rain = 0
KHRS 100330Z 23007KT 07/02 A3011 RMK A01 T00680015  RH  070%=      5-min Rain = 0
KHRS 100335Z 22007KT 07/02 A301 RMK A01 T00650015  RH  071%=      5-min Rain = 0
KHRS 100340Z 22006KT 07/02 A301 RMK A01 T00650016  RH  072%=      5-min Rain = 0
KHRS 100345Z 22007KT 07/02 A301 RMK A01 T00650017  RH  072%=      5-min Rain = 0
KHRS 100350Z 22006KT 06/02 A301 RMK A01 T00640017  RH  072%=      5-min Rain = 0
KHRS 100355Z 23006KT 06/02 A301 RMK A01 T00620016  RH  073%=      5-min Rain = 0
KHRS 100400Z 24005KT 06/02 A301 RMK A01 T00610016  RH  074%=      5-min Rain = 0
KHRS 100405Z 24006KT 06/02 A301 RMK A01 T00580017  RH  076%=      5-min Rain = 0
KHRS 100410Z 24006KT 06/02 A301 RMK A01 T00590018  RH  076%=      5-min Rain = 0
KHRS 100415Z 25006KT 06/02 A301 RMK A01 T00610017  RH  074%=      5-min Rain = 0
KHRS 100420Z 25005KT 06/02 A301 RMK A01 T00560016  RH  077%=      5-min Rain = 0
KHRS 100425Z 26005KT 05/02 A301 RMK A01 T00510015  RH  079%=      5-min Rain = 0
KHRS 100430Z 26006KT 05/02 A301 RMK A01 T00470016  RH  081%=      5-min Rain = 0
KHRS 100435Z 26006KT 05/02 A301 RMK A01 T00460016  RH  082%=      5-min Rain = 0
KHRS 100440Z 25007KT 05/02 A301 RMK A01 T00450016  RH  083%=      5-min Rain = 0
KHRS 100445Z 25008KT 05/02 A301 RMK A01 T00480018  RH  082%=      5-min Rain = 0
KHRS 100450Z 24007KT 05/02 A3011 RMK A01 T00540019  RH  079%=      5-min Rain = 0
KHRS 100455Z 24007KT 05/02 A3011 RMK A01 T00540016  RH  078%=      5-min Rain = 0
KHRS 100500Z 24007KT 05/02 A301 RMK A01 T00530016  RH  078%=      5-min Rain = 0
KHRS 100505Z 24008KT 05/02 A301 RMK A01 T00540017  RH  078%=      5-min Rain = 0
KHRS 100510Z 25008KT 05/01 A301 RMK A01 T00480013  RH  079%=      5-min Rain = 0
KHRS 100515Z 25008KT 04/01 A301 RMK A01 T00400009  RH  081%=      5-min Rain = 0
KHRS 100520Z 25008KT 04/01 A301 RMK A01 T00360011  RH  084%=      5-min Rain = 0
KHRS 100525Z 25008KT 04/02 A301 RMK A01 T00420017  RH  085%=      5-min Rain = 0
KHRS 100530Z 25007KT 04/01 A3009 RMK A01 T00410014  RH  084%=      5-min Rain = 0
KHRS 100535Z 25008KT 04/02 A3009 RMK A01 T00400016  RH  085%=      5-min Rain = 0
KHRS 100540Z 24008KT 04/02 A3009 RMK A01 T00440019  RH  085%=      5-min Rain = 0
KHRS 100545Z 25008KT 05/02 A3009 RMK A01 T00480020  RH  083%=      5-min Rain = 0
KHRS 100550Z 24009KT 05/02 A3009 RMK A01 T00480018  RH  082%=      5-min Rain = 0
KHRS 100555Z 24009KT 05/02 A3009 RMK A01 T00470018  RH  082%=      5-min Rain = 0

Page generated in 0.0135 seconds.